Home   Weather   Navalcarnero   Past weeks
Flag for Spain

Past Weather in Navalcarnero, Madrid, Spain — Yesterday and Last 2 Weeks

Currently: 84 °F. Scattered clouds. (Weather station: Madrid / Cuatro Vientos, Spain). See more current weather

Past Weather in Navalcarnero — Graph

°F

Navalcarnero Temperature Yesterday

Maximum temperature yesterday: 84 °F (at 6:00 pm)
Minimum temperature yesterday: 59 °F (at 6:30 am)
Average temperature yesterday: 71 °F

High & Low Weather Summary for the Past Weeks

 TemperatureHumidityPressure
High100 °F (Jul 22, 6:30 pm)94% (Jul 26, 12:00 am)30.12 "Hg (Jul 26, 12:00 am)
Low59 °F (Aug 1, 6:30 am)10% (Jul 19, 3:30 pm)29.83 "Hg (Jul 25, 7:30 pm)
Average80 °F34%29.98 "Hg
* Reported Jul 18 2:00 pm — Aug 2 2:30 pm, Navalcarnero. Weather by CustomWeather, © 2021

Note: Actual official high and low records may vary slightly from our data, if they occured in-between our weather recording intervals... More about our weather records

Navalcarnero Weather History for the Previous 24 Hours

Scroll right to see more
 ConditionsComfort  
Time TempWeatherWind HumidityBarometerVisibility
2:30 pm
Mon, Aug 2
84 °FScattered clouds.3 mph27%30.01 "HgN/A
2:00 pm84 °FPassing clouds.5 mph31%30.04 "HgN/A
1:30 pm79 °FPassing clouds.2 mph37%30.04 "HgN/A
1:00 pm79 °FSunny.5 mph39%30.04 "Hg10 mi
12:30 pm77 °FSunny.3 mph42%30.04 "Hg10 mi
12:00 pm77 °FSunny.3 mph44%30.04 "Hg10 mi
11:30 am75 °FSunny.3 mph47%30.04 "Hg10 mi
11:00 am72 °FPassing clouds.5 mph53%30.04 "HgN/A
10:30 am70 °FSunny.5 mph57%30.04 "Hg10 mi
10:00 am70 °FSunny.5 mph53%30.04 "Hg10 mi
9:30 am68 °FPassing clouds.5 mph56%30.04 "HgN/A
9:00 am68 °FSunny.5 mph49%30.04 "Hg10 mi
8:30 am66 °FPassing clouds.3 mph49%30.04 "HgN/A
8:00 am64 °FPassing clouds.3 mph52%30.04 "HgN/A
7:30 am63 °FPassing clouds.3 mph52%30.01 "HgN/A
7:00 am63 °FPassing clouds.5 mph52%30.01 "HgN/A
6:30 am63 °FPassing clouds.5 mph52%30.01 "HgN/A
6:00 am63 °FPassing clouds.3 mph49%30.01 "HgN/A
5:30 am64 °FPassing clouds.5 mph46%30.01 "HgN/A
5:00 am64 °FPassing clouds.5 mph43%30.01 "HgN/A
4:30 am66 °FPassing clouds.5 mph43%30.01 "HgN/A
4:00 am66 °FClear.2 mph40%30.01 "Hg10 mi
3:30 am66 °FPassing clouds.3 mph40%30.01 "HgN/A
3:00 am66 °FPassing clouds.6 mph40%30.01 "HgN/A
1:30 am72 °FClear.2 mph31%30.01 "Hg10 mi
1:00 am72 °FClear.2 mph31%30.01 "Hg10 mi
12:30 am72 °FPassing clouds.3 mph33%30.01 "HgN/A
12:00 am72 °FClear.2 mph33%30.01 "Hg10 mi
11:30 pm
Sun, Aug 1
73 °FClear.2 mph31%30.01 "Hg10 mi
11:00 pm75 °FPassing clouds.3 mph29%30.01 "HgN/A
10:30 pm75 °FClear.5 mph29%30.01 "Hg6 mi
10:00 pm75 °FPassing clouds.7 mph27%30.01 "HgN/A
9:30 pm77 °FPassing clouds.6 mph26%29.98 "HgN/A
9:00 pm79 °FSunny.No wind26%29.98 "Hg10 mi
8:30 pm79 °FSunny.1 mph26%29.98 "Hg10 mi
8:00 pm81 °FPassing clouds.3 mph24%29.98 "HgN/A
7:30 pm81 °FPassing clouds.5 mph23%29.98 "HgN/A
7:00 pm82 °FSunny.5 mph23%29.98 "Hg10 mi
6:30 pm82 °FSunny.2 mph21%29.98 "Hg10 mi
6:00 pm84 °FSunny.3 mph20%29.98 "Hg10 mi
5:30 pm82 °FSunny.7 mph20%30.01 "Hg10 mi
5:00 pm81 °FPassing clouds.9 mph23%30.01 "HgN/A
4:30 pm81 °FSunny.8 mph24%30.01 "Hg10 mi
4:00 pm81 °FPassing clouds.7 mph23%30.01 "HgN/A
3:30 pm79 °FSunny.7 mph28%30.04 "Hg10 mi
3:00 pm79 °FPassing clouds.6 mph30%30.04 "HgN/A
Weather by CustomWeather, © 2021

See weather overview